sensor_id;sensor_type;location;lat;lon;timestamp;pressure;altitude;pressure_sealevel;temperature
19666;BMP180;9980;51.020;7.772;2023-11-19T00:00:18;97014.00;;;12.80
19666;BMP180;9980;51.020;7.772;2023-11-19T00:02:45;97019.00;;;12.80
19666;BMP180;9980;51.020;7.772;2023-11-19T00:05:14;97018.00;;;12.80
19666;BMP180;9980;51.020;7.772;2023-11-19T00:07:42;97017.00;;;12.80
19666;BMP180;9980;51.020;7.772;2023-11-19T00:10:14;97011.00;;;12.80
19666;BMP180;9980;51.020;7.772;2023-11-19T00:12:47;97000.00;;;12.80
19666;BMP180;9980;51.020;7.772;2023-11-19T00:15:16;96985.00;;;12.90
19666;BMP180;9980;51.020;7.772;2023-11-19T00:17:46;97008.00;;;12.90
19666;BMP180;9980;51.020;7.772;2023-11-19T00:20:19;96989.00;;;12.90
19666;BMP180;9980;51.020;7.772;2023-11-19T00:22:46;96989.00;;;12.90
19666;BMP180;9980;51.020;7.772;2023-11-19T00:25:18;96993.00;;;12.90
19666;BMP180;9980;51.020;7.772;2023-11-19T00:27:45;96997.00;;;12.90
19666;BMP180;9980;51.020;7.772;2023-11-19T00:30:13;96988.00;;;12.90
19666;BMP180;9980;51.020;7.772;2023-11-19T00:32:41;96965.00;;;12.90
19666;BMP180;9980;51.020;7.772;2023-11-19T00:35:09;96960.00;;;13.00
19666;BMP180;9980;51.020;7.772;2023-11-19T00:37:42;96959.00;;;13.00
19666;BMP180;9980;51.020;7.772;2023-11-19T00:40:10;96962.00;;;13.00
19666;BMP180;9980;51.020;7.772;2023-11-19T00:42:38;96951.00;;;13.00
19666;BMP180;9980;51.020;7.772;2023-11-19T00:45:05;96957.00;;;13.00
19666;BMP180;9980;51.020;7.772;2023-11-19T00:47:38;96960.00;;;13.00
19666;BMP180;9980;51.020;7.772;2023-11-19T00:50:07;96946.00;;;13.10
19666;BMP180;9980;51.020;7.772;2023-11-19T00:52:37;96945.00;;;13.10
19666;BMP180;9980;51.020;7.772;2023-11-19T00:55:05;96952.00;;;13.10
19666;BMP180;9980;51.020;7.772;2023-11-19T00:57:32;96940.00;;;13.10
19666;BMP180;9980;51.020;7.772;2023-11-19T00:59:59;96956.00;;;13.10
19666;BMP180;9980;51.020;7.772;2023-11-19T01:02:26;96939.00;;;13.10
19666;BMP180;9980;51.020;7.772;2023-11-19T01:04:55;96937.00;;;13.20
19666;BMP180;9980;51.020;7.772;2023-11-19T01:07:22;96941.00;;;13.20
19666;BMP180;9980;51.020;7.772;2023-11-19T01:09:51;96945.00;;;13.20
19666;BMP180;9980;51.020;7.772;2023-11-19T01:12:18;96921.00;;;13.20
19666;BMP180;9980;51.020;7.772;2023-11-19T01:14:45;96926.00;;;13.20
19666;BMP180;9980;51.020;7.772;2023-11-19T01:17:12;96924.00;;;13.30
19666;BMP180;9980;51.020;7.772;2023-11-19T01:19:38;96929.00;;;13.30
19666;BMP180;9980;51.020;7.772;2023-11-19T01:22:05;96923.00;;;13.30
19666;BMP180;9980;51.020;7.772;2023-11-19T01:24:33;96917.00;;;13.30
19666;BMP180;9980;51.020;7.772;2023-11-19T01:27:00;96934.00;;;13.40
19666;BMP180;9980;51.020;7.772;2023-11-19T01:29:27;96917.00;;;13.40
19666;BMP180;9980;51.020;7.772;2023-11-19T01:31:54;96901.00;;;13.40
19666;BMP180;9980;51.020;7.772;2023-11-19T01:34:21;96911.00;;;13.40
19666;BMP180;9980;51.020;7.772;2023-11-19T01:36:48;96898.00;;;13.40
19666;BMP180;9980;51.020;7.772;2023-11-19T01:39:16;96895.00;;;13.40
19666;BMP180;9980;51.020;7.772;2023-11-19T01:41:46;96922.00;;;13.50
19666;BMP180;9980;51.020;7.772;2023-11-19T01:44:13;96895.00;;;13.50
19666;BMP180;9980;51.020;7.772;2023-11-19T01:46:44;96900.00;;;13.50
19666;BMP180;9980;51.020;7.772;2023-11-19T01:49:12;96897.00;;;13.50
19666;BMP180;9980;51.020;7.772;2023-11-19T01:51:40;96884.00;;;13.50
19666;BMP180;9980;51.020;7.772;2023-11-19T01:54:08;96906.00;;;13.60
19666;BMP180;9980;51.020;7.772;2023-11-19T01:56:38;96889.00;;;13.60
19666;BMP180;9980;51.020;7.772;2023-11-19T01:59:11;96896.00;;;13.60
19666;BMP180;9980;51.020;7.772;2023-11-19T02:01:41;96879.00;;;13.60
19666;BMP180;9980;51.020;7.772;2023-11-19T02:04:11;96877.00;;;13.60
19666;BMP180;9980;51.020;7.772;2023-11-19T02:06:40;96883.00;;;13.60
19666;BMP180;9980;51.020;7.772;2023-11-19T02:09:09;96881.00;;;13.60
19666;BMP180;9980;51.020;7.772;2023-11-19T02:11:39;96890.00;;;13.70
19666;BMP180;9980;51.020;7.772;2023-11-19T02:14:06;96891.00;;;13.70
19666;BMP180;9980;51.020;7.772;2023-11-19T02:16:34;96875.00;;;13.70
19666;BMP180;9980;51.020;7.772;2023-11-19T02:19:01;96884.00;;;13.80
19666;BMP180;9980;51.020;7.772;2023-11-19T02:21:28;96873.00;;;13.80
19666;BMP180;9980;51.020;7.772;2023-11-19T02:23:55;96865.00;;;13.80
19666;BMP180;9980;51.020;7.772;2023-11-19T02:27:08;96893.00;;;13.80
19666;BMP180;9980;51.020;7.772;2023-11-19T02:29:37;96891.00;;;13.90
19666;BMP180;9980;51.020;7.772;2023-11-19T02:32:05;96879.00;;;13.90
19666;BMP180;9980;51.020;7.772;2023-11-19T02:34:36;96899.00;;;13.90
19666;BMP180;9980;51.020;7.772;2023-11-19T02:37:03;96906.00;;;14.00
19666;BMP180;9980;51.020;7.772;2023-11-19T02:39:31;96883.00;;;14.00
19666;BMP180;9980;51.020;7.772;2023-11-19T02:41:58;96871.00;;;14.00
19666;BMP180;9980;51.020;7.772;2023-11-19T02:44:25;96874.00;;;14.10
19666;BMP180;9980;51.020;7.772;2023-11-19T02:46:55;96893.00;;;14.10
19666;BMP180;9980;51.020;7.772;2023-11-19T02:49:23;96890.00;;;14.10
19666;BMP180;9980;51.020;7.772;2023-11-19T02:51:51;96868.00;;;14.10
19666;BMP180;9980;51.020;7.772;2023-11-19T02:54:17;96862.00;;;14.20
19666;BMP180;9980;51.020;7.772;2023-11-19T02:56:45;96857.00;;;14.20
19666;BMP180;9980;51.020;7.772;2023-11-19T02:59:14;96864.00;;;14.20
19666;BMP180;9980;51.020;7.772;2023-11-19T03:01:54;96869.00;;;14.30
19666;BMP180;9980;51.020;7.772;2023-11-19T03:04:22;96844.00;;;14.30
19666;BMP180;9980;51.020;7.772;2023-11-19T03:06:50;96834.00;;;14.30
19666;BMP180;9980;51.020;7.772;2023-11-19T03:09:16;96855.00;;;14.40
19666;BMP180;9980;51.020;7.772;2023-11-19T03:11:43;96860.00;;;14.40
19666;BMP180;9980;51.020;7.772;2023-11-19T03:14:10;96853.00;;;14.40
19666;BMP180;9980;51.020;7.772;2023-11-19T03:16:37;96853.00;;;14.40
19666;BMP180;9980;51.020;7.772;2023-11-19T03:19:04;96846.00;;;14.50
19666;BMP180;9980;51.020;7.772;2023-11-19T03:21:31;96842.00;;;14.50
19666;BMP180;9980;51.020;7.772;2023-11-19T03:23:58;96845.00;;;14.50
19666;BMP180;9980;51.020;7.772;2023-11-19T03:26:28;96840.00;;;14.60
19666;BMP180;9980;51.020;7.772;2023-11-19T03:28:55;96840.00;;;14.60
19666;BMP180;9980;51.020;7.772;2023-11-19T03:31:24;96844.00;;;14.60
19666;BMP180;9980;51.020;7.772;2023-11-19T03:33:52;96839.00;;;14.60
19666;BMP180;9980;51.020;7.772;2023-11-19T03:36:21;96841.00;;;14.60
19666;BMP180;9980;51.020;7.772;2023-11-19T03:38:51;96835.00;;;14.70
19666;BMP180;9980;51.020;7.772;2023-11-19T03:41:19;96843.00;;;14.70
19666;BMP180;9980;51.020;7.772;2023-11-19T03:43:46;96844.00;;;14.70
19666;BMP180;9980;51.020;7.772;2023-11-19T03:46:20;96823.00;;;14.70
19666;BMP180;9980;51.020;7.772;2023-11-19T03:48:51;96840.00;;;14.70
19666;BMP180;9980;51.020;7.772;2023-11-19T03:51:18;96833.00;;;14.80
19666;BMP180;9980;51.020;7.772;2023-11-19T03:53:46;96829.00;;;14.80
19666;BMP180;9980;51.020;7.772;2023-11-19T03:56:13;96829.00;;;14.80
19666;BMP180;9980;51.020;7.772;2023-11-19T03:58:40;96847.00;;;14.80
19666;BMP180;9980;51.020;7.772;2023-11-19T04:01:12;96833.00;;;14.80
19666;BMP180;9980;51.020;7.772;2023-11-19T04:03:40;96841.00;;;14.90
19666;BMP180;9980;51.020;7.772;2023-11-19T04:06:17;96819.00;;;14.90
19666;BMP180;9980;51.020;7.772;2023-11-19T04:08:44;96830.00;;;14.90
19666;BMP180;9980;51.020;7.772;2023-11-19T04:11:11;96836.00;;;14.90
19666;BMP180;9980;51.020;7.772;2023-11-19T04:13:38;96837.00;;;14.90
19666;BMP180;9980;51.020;7.772;2023-11-19T04:16:05;96847.00;;;14.90
19666;BMP180;9980;51.020;7.772;2023-11-19T04:18:32;96829.00;;;14.90
19666;BMP180;9980;51.020;7.772;2023-11-19T04:20:59;96833.00;;;14.90
19666;BMP180;9980;51.020;7.772;2023-11-19T04:23:26;96832.00;;;15.00
19666;BMP180;9980;51.020;7.772;2023-11-19T04:25:53;96834.00;;;15.00
19666;BMP180;9980;51.020;7.772;2023-11-19T04:28:20;96828.00;;;15.00
19666;BMP180;9980;51.020;7.772;2023-11-19T04:30:47;96829.00;;;15.00
19666;BMP180;9980;51.020;7.772;2023-11-19T04:33:14;96844.00;;;15.00
19666;BMP180;9980;51.020;7.772;2023-11-19T04:35:41;96840.00;;;15.00
19666;BMP180;9980;51.020;7.772;2023-11-19T04:38:08;96834.00;;;15.00
19666;BMP180;9980;51.020;7.772;2023-11-19T04:40:35;96841.00;;;15.00
19666;BMP180;9980;51.020;7.772;2023-11-19T04:43:02;96823.00;;;15.00
19666;BMP180;9980;51.020;7.772;2023-11-19T04:45:29;96840.00;;;15.00
19666;BMP180;9980;51.020;7.772;2023-11-19T04:47:56;96843.00;;;15.00
19666;BMP180;9980;51.020;7.772;2023-11-19T04:50:23;96839.00;;;15.00
19666;BMP180;9980;51.020;7.772;2023-11-19T04:52:50;96849.00;;;15.00
19666;BMP180;9980;51.020;7.772;2023-11-19T04:55:17;96843.00;;;15.00
19666;BMP180;9980;51.020;7.772;2023-11-19T04:57:44;96835.00;;;15.00
19666;BMP180;9980;51.020;7.772;2023-11-19T05:00:12;96847.00;;;15.00
19666;BMP180;9980;51.020;7.772;2023-11-19T05:02:43;96851.00;;;15.00
19666;BMP180;9980;51.020;7.772;2023-11-19T05:05:11;96849.00;;;15.00
19666;BMP180;9980;51.020;7.772;2023-11-19T05:07:39;96858.00;;;15.00
19666;BMP180;9980;51.020;7.772;2023-11-19T05:10:06;96863.00;;;15.00
19666;BMP180;9980;51.020;7.772;2023-11-19T05:12:34;96846.00;;;15.10
19666;BMP180;9980;51.020;7.772;2023-11-19T05:15:01;96850.00;;;15.10
19666;BMP180;9980;51.020;7.772;2023-11-19T05:17:27;96839.00;;;15.10
19666;BMP180;9980;51.020;7.772;2023-11-19T05:19:55;96852.00;;;15.10
19666;BMP180;9980;51.020;7.772;2023-11-19T05:22:21;96843.00;;;15.10
19666;BMP180;9980;51.020;7.772;2023-11-19T05:24:48;96840.00;;;15.10
19666;BMP180;9980;51.020;7.772;2023-11-19T05:27:16;96843.00;;;15.10
19666;BMP180;9980;51.020;7.772;2023-11-19T05:29:43;96857.00;;;15.10
19666;BMP180;9980;51.020;7.772;2023-11-19T05:32:10;96849.00;;;15.10
19666;BMP180;9980;51.020;7.772;2023-11-19T05:34:38;96855.00;;;15.10
19666;BMP180;9980;51.020;7.772;2023-11-19T05:37:18;96852.00;;;15.10
19666;BMP180;9980;51.020;7.772;2023-11-19T05:39:45;96852.00;;;15.10
19666;BMP180;9980;51.020;7.772;2023-11-19T05:42:12;96856.00;;;15.10
19666;BMP180;9980;51.020;7.772;2023-11-19T05:44:39;96857.00;;;15.10
19666;BMP180;9980;51.020;7.772;2023-11-19T05:47:07;96858.00;;;15.10
19666;BMP180;9980;51.020;7.772;2023-11-19T05:49:35;96859.00;;;15.10
19666;BMP180;9980;51.020;7.772;2023-11-19T05:52:02;96879.00;;;15.10
19666;BMP180;9980;51.020;7.772;2023-11-19T05:54:30;96879.00;;;15.10
19666;BMP180;9980;51.020;7.772;2023-11-19T05:56:58;96875.00;;;15.10
19666;BMP180;9980;51.020;7.772;2023-11-19T05:59:25;96857.00;;;15.10
19666;BMP180;9980;51.020;7.772;2023-11-19T06:01:52;96882.00;;;15.10
19666;BMP180;9980;51.020;7.772;2023-11-19T06:04:19;96872.00;;;15.10
19666;BMP180;9980;51.020;7.772;2023-11-19T06:06:47;96861.00;;;15.00
19666;BMP180;9980;51.020;7.772;2023-11-19T06:09:14;96866.00;;;15.00
19666;BMP180;9980;51.020;7.772;2023-11-19T06:11:41;96887.00;;;15.00
19666;BMP180;9980;51.020;7.772;2023-11-19T06:14:08;96879.00;;;15.00
19666;BMP180;9980;51.020;7.772;2023-11-19T06:16:35;96876.00;;;15.00
19666;BMP180;9980;51.020;7.772;2023-11-19T06:19:03;96887.00;;;15.00
19666;BMP180;9980;51.020;7.772;2023-11-19T06:21:31;96875.00;;;15.00
19666;BMP180;9980;51.020;7.772;2023-11-19T06:23:58;96892.00;;;15.00
19666;BMP180;9980;51.020;7.772;2023-11-19T06:26:26;96903.00;;;14.90
19666;BMP180;9980;51.020;7.772;2023-11-19T06:28:53;96894.00;;;14.90
19666;BMP180;9980;51.020;7.772;2023-11-19T06:31:20;96892.00;;;14.90
19666;BMP180;9980;51.020;7.772;2023-11-19T06:33:48;96899.00;;;14.90
19666;BMP180;9980;51.020;7.772;2023-11-19T06:36:15;96893.00;;;14.90
19666;BMP180;9980;51.020;7.772;2023-11-19T06:38:43;96893.00;;;14.90
19666;BMP180;9980;51.020;7.772;2023-11-19T06:41:10;96895.00;;;14.90
19666;BMP180;9980;51.020;7.772;2023-11-19T06:43:37;96897.00;;;14.90
19666;BMP180;9980;51.020;7.772;2023-11-19T06:46:18;96900.00;;;14.90
19666;BMP180;9980;51.020;7.772;2023-11-19T06:48:45;96899.00;;;14.90
19666;BMP180;9980;51.020;7.772;2023-11-19T06:51:13;96897.00;;;14.90
19666;BMP180;9980;51.020;7.772;2023-11-19T06:53:42;96904.00;;;14.90
19666;BMP180;9980;51.020;7.772;2023-11-19T06:56:22;96913.00;;;14.90
19666;BMP180;9980;51.020;7.772;2023-11-19T06:58:52;96902.00;;;14.90
19666;BMP180;9980;51.020;7.772;2023-11-19T07:01:20;96911.00;;;14.90
19666;BMP180;9980;51.020;7.772;2023-11-19T07:03:48;96917.00;;;14.90
19666;BMP180;9980;51.020;7.772;2023-11-19T07:06:15;96919.00;;;14.90
19666;BMP180;9980;51.020;7.772;2023-11-19T07:08:42;96919.00;;;14.90
19666;BMP180;9980;51.020;7.772;2023-11-19T07:11:13;96918.00;;;14.90
19666;BMP180;9980;51.020;7.772;2023-11-19T07:13:42;96914.00;;;14.90
19666;BMP180;9980;51.020;7.772;2023-11-19T07:16:09;96919.00;;;14.90
19666;BMP180;9980;51.020;7.772;2023-11-19T07:18:39;96927.00;;;14.90
19666;BMP180;9980;51.020;7.772;2023-11-19T07:21:06;96915.00;;;14.80
19666;BMP180;9980;51.020;7.772;2023-11-19T07:23:34;96931.00;;;14.80
19666;BMP180;9980;51.020;7.772;2023-11-19T07:26:04;96922.00;;;14.80
19666;BMP180;9980;51.020;7.772;2023-11-19T07:28:31;96925.00;;;14.80
19666;BMP180;9980;51.020;7.772;2023-11-19T07:31:01;96905.00;;;14.80
19666;BMP180;9980;51.020;7.772;2023-11-19T07:33:28;96919.00;;;14.80
19666;BMP180;9980;51.020;7.772;2023-11-19T07:35:56;96918.00;;;14.80
19666;BMP180;9980;51.020;7.772;2023-11-19T07:38:23;96911.00;;;14.80
19666;BMP180;9980;51.020;7.772;2023-11-19T07:40:50;96927.00;;;14.80
19666;BMP180;9980;51.020;7.772;2023-11-19T07:43:20;96914.00;;;14.80
19666;BMP180;9980;51.020;7.772;2023-11-19T07:45:47;96921.00;;;14.80
19666;BMP180;9980;51.020;7.772;2023-11-19T07:48:13;96928.00;;;14.80
19666;BMP180;9980;51.020;7.772;2023-11-19T07:50:42;96933.00;;;14.90
19666;BMP180;9980;51.020;7.772;2023-11-19T07:53:09;96926.00;;;14.90
19666;BMP180;9980;51.020;7.772;2023-11-19T07:55:36;96917.00;;;14.90
19666;BMP180;9980;51.020;7.772;2023-11-19T07:58:09;96924.00;;;14.90
19666;BMP180;9980;51.020;7.772;2023-11-19T08:00:36;96918.00;;;14.90
19666;BMP180;9980;51.020;7.772;2023-11-19T08:03:04;96918.00;;;14.90
19666;BMP180;9980;51.020;7.772;2023-11-19T08:05:31;96937.00;;;14.90
19666;BMP180;9980;51.020;7.772;2023-11-19T08:07:58;96940.00;;;14.90
19666;BMP180;9980;51.020;7.772;2023-11-19T08:10:26;96934.00;;;14.90
19666;BMP180;9980;51.020;7.772;2023-11-19T08:12:53;96950.00;;;14.90
19666;BMP180;9980;51.020;7.772;2023-11-19T08:15:20;96943.00;;;14.90
19666;BMP180;9980;51.020;7.772;2023-11-19T08:17:50;96952.00;;;14.90
19666;BMP180;9980;51.020;7.772;2023-11-19T08:20:18;96951.00;;;15.00
19666;BMP180;9980;51.020;7.772;2023-11-19T08:22:45;96950.00;;;15.00
19666;BMP180;9980;51.020;7.772;2023-11-19T08:25:14;96950.00;;;15.00
19666;BMP180;9980;51.020;7.772;2023-11-19T08:27:41;96960.00;;;15.00
19666;BMP180;9980;51.020;7.772;2023-11-19T08:30:10;96944.00;;;15.00
19666;BMP180;9980;51.020;7.772;2023-11-19T08:32:37;96946.00;;;15.00
19666;BMP180;9980;51.020;7.772;2023-11-19T08:35:04;96945.00;;;15.00
19666;BMP180;9980;51.020;7.772;2023-11-19T08:37:32;96961.00;;;15.00
19666;BMP180;9980;51.020;7.772;2023-11-19T08:39:59;96956.00;;;15.00
19666;BMP180;9980;51.020;7.772;2023-11-19T08:42:27;96952.00;;;15.00
19666;BMP180;9980;51.020;7.772;2023-11-19T08:44:55;96964.00;;;15.00
19666;BMP180;9980;51.020;7.772;2023-11-19T08:47:22;96945.00;;;15.10
19666;BMP180;9980;51.020;7.772;2023-11-19T08:49:52;96957.00;;;15.10
19666;BMP180;9980;51.020;7.772;2023-11-19T08:52:23;96948.00;;;15.10
19666;BMP180;9980;51.020;7.772;2023-11-19T08:54:50;96959.00;;;15.10
19666;BMP180;9980;51.020;7.772;2023-11-19T08:57:17;96953.00;;;15.10
19666;BMP180;9980;51.020;7.772;2023-11-19T08:59:44;96965.00;;;15.20
19666;BMP180;9980;51.020;7.772;2023-11-19T09:02:13;96963.00;;;15.20
19666;BMP180;9980;51.020;7.772;2023-11-19T09:04:40;96968.00;;;15.20
19666;BMP180;9980;51.020;7.772;2023-11-19T09:07:08;96966.00;;;15.20
19666;BMP180;9980;51.020;7.772;2023-11-19T09:09:36;96959.00;;;15.20
19666;BMP180;9980;51.020;7.772;2023-11-19T09:12:04;96976.00;;;15.20
19666;BMP180;9980;51.020;7.772;2023-11-19T09:14:31;96967.00;;;15.30
19666;BMP180;9980;51.020;7.772;2023-11-19T09:16:58;96986.00;;;15.30
19666;BMP180;9980;51.020;7.772;2023-11-19T09:19:26;96974.00;;;15.30
19666;BMP180;9980;51.020;7.772;2023-11-19T09:21:54;96993.00;;;15.30
19666;BMP180;9980;51.020;7.772;2023-11-19T09:24:21;96979.00;;;15.30
19666;BMP180;9980;51.020;7.772;2023-11-19T09:26:48;96965.00;;;15.30
19666;BMP180;9980;51.020;7.772;2023-11-19T09:29:15;96977.00;;;15.30
19666;BMP180;9980;51.020;7.772;2023-11-19T09:31:43;96981.00;;;15.40
19666;BMP180;9980;51.020;7.772;2023-11-19T09:34:10;96972.00;;;15.40
19666;BMP180;9980;51.020;7.772;2023-11-19T09:36:37;96988.00;;;15.40
19666;BMP180;9980;51.020;7.772;2023-11-19T09:39:04;96978.00;;;15.40
19666;BMP180;9980;51.020;7.772;2023-11-19T09:41:32;96971.00;;;15.40
19666;BMP180;9980;51.020;7.772;2023-11-19T09:44:00;96986.00;;;15.40
19666;BMP180;9980;51.020;7.772;2023-11-19T09:46:28;96984.00;;;15.40
19666;BMP180;9980;51.020;7.772;2023-11-19T09:48:57;96982.00;;;15.40
19666;BMP180;9980;51.020;7.772;2023-11-19T09:51:26;96981.00;;;15.40
19666;BMP180;9980;51.020;7.772;2023-11-19T09:53:53;96983.00;;;15.50
19666;BMP180;9980;51.020;7.772;2023-11-19T09:56:20;96979.00;;;15.50
19666;BMP180;9980;51.020;7.772;2023-11-19T09:58:48;96981.00;;;15.50
19666;BMP180;9980;51.020;7.772;2023-11-19T10:01:15;96971.00;;;15.50
19666;BMP180;9980;51.020;7.772;2023-11-19T10:03:55;96969.00;;;15.60
19666;BMP180;9980;51.020;7.772;2023-11-19T10:06:25;96979.00;;;15.60
19666;BMP180;9980;51.020;7.772;2023-11-19T10:08:53;96978.00;;;15.60
19666;BMP180;9980;51.020;7.772;2023-11-19T10:11:22;96987.00;;;15.60
19666;BMP180;9980;51.020;7.772;2023-11-19T10:13:49;96984.00;;;15.60
19666;BMP180;9980;51.020;7.772;2023-11-19T10:16:17;96979.00;;;15.60
19666;BMP180;9980;51.020;7.772;2023-11-19T10:18:49;96966.00;;;15.60
19666;BMP180;9980;51.020;7.772;2023-11-19T10:21:19;96975.00;;;15.60
19666;BMP180;9980;51.020;7.772;2023-11-19T10:23:51;96960.00;;;15.60
19666;BMP180;9980;51.020;7.772;2023-11-19T10:26:20;96977.00;;;15.60
19666;BMP180;9980;51.020;7.772;2023-11-19T10:28:48;96974.00;;;15.60
19666;BMP180;9980;51.020;7.772;2023-11-19T10:31:17;96955.00;;;15.60
19666;BMP180;9980;51.020;7.772;2023-11-19T10:33:45;96966.00;;;15.60
19666;BMP180;9980;51.020;7.772;2023-11-19T10:36:13;96966.00;;;15.70
19666;BMP180;9980;51.020;7.772;2023-11-19T10:38:55;96976.00;;;15.70
19666;BMP180;9980;51.020;7.772;2023-11-19T10:41:31;96957.00;;;15.70
19666;BMP180;9980;51.020;7.772;2023-11-19T10:43:59;96960.00;;;15.70
19666;BMP180;9980;51.020;7.772;2023-11-19T10:46:44;96963.00;;;15.60
19666;BMP180;9980;51.020;7.772;2023-11-19T10:49:11;96958.00;;;15.70
19666;BMP180;9980;51.020;7.772;2023-11-19T10:51:45;96959.00;;;15.70
19666;BMP180;9980;51.020;7.772;2023-11-19T10:54:19;96956.00;;;15.80
19666;BMP180;9980;51.020;7.772;2023-11-19T10:56:58;96967.00;;;15.80
19666;BMP180;9980;51.020;7.772;2023-11-19T10:59:30;96952.00;;;15.80
19666;BMP180;9980;51.020;7.772;2023-11-19T11:02:06;96944.00;;;15.90
19666;BMP180;9980;51.020;7.772;2023-11-19T11:04:39;96954.00;;;15.90
19666;BMP180;9980;51.020;7.772;2023-11-19T11:07:08;96957.00;;;15.90
19666;BMP180;9980;51.020;7.772;2023-11-19T11:09:35;96949.00;;;15.90
19666;BMP180;9980;51.020;7.772;2023-11-19T11:12:06;96961.00;;;15.90
19666;BMP180;9980;51.020;7.772;2023-11-19T11:14:37;96959.00;;;15.90
19666;BMP180;9980;51.020;7.772;2023-11-19T11:17:05;96958.00;;;15.90
19666;BMP180;9980;51.020;7.772;2023-11-19T11:19:35;96953.00;;;16.00
19666;BMP180;9980;51.020;7.772;2023-11-19T11:22:04;96946.00;;;16.00
19666;BMP180;9980;51.020;7.772;2023-11-19T11:28:13;96943.00;;;15.90
19666;BMP180;9980;51.020;7.772;2023-11-19T11:31:02;96958.00;;;16.00
19666;BMP180;9980;51.020;7.772;2023-11-19T11:36:38;96939.00;;;16.00
19666;BMP180;9980;51.020;7.772;2023-11-19T11:39:07;96936.00;;;16.00
19666;BMP180;9980;51.020;7.772;2023-11-19T11:41:34;96937.00;;;16.00
19666;BMP180;9980;51.020;7.772;2023-11-19T11:44:01;96955.00;;;16.10
19666;BMP180;9980;51.020;7.772;2023-11-19T11:49:04;96952.00;;;16.10
19666;BMP180;9980;51.020;7.772;2023-11-19T11:57:11;96936.00;;;16.10
19666;BMP180;9980;51.020;7.772;2023-11-19T11:59:50;96945.00;;;16.10
19666;BMP180;9980;51.020;7.772;2023-11-19T12:02:22;96922.00;;;16.10
19666;BMP180;9980;51.020;7.772;2023-11-19T12:04:51;96936.00;;;16.10
19666;BMP180;9980;51.020;7.772;2023-11-19T12:07:23;96949.00;;;16.10
19666;BMP180;9980;51.020;7.772;2023-11-19T12:10:07;96945.00;;;16.10
19666;BMP180;9980;51.020;7.772;2023-11-19T12:12:37;96939.00;;;16.10
19666;BMP180;9980;51.020;7.772;2023-11-19T12:15:10;96946.00;;;16.00
19666;BMP180;9980;51.020;7.772;2023-11-19T12:17:42;96942.00;;;16.00
19666;BMP180;9980;51.020;7.772;2023-11-19T12:20:12;96926.00;;;16.00
19666;BMP180;9980;51.020;7.772;2023-11-19T12:22:42;96930.00;;;16.00
19666;BMP180;9980;51.020;7.772;2023-11-19T12:25:11;96920.00;;;16.00
19666;BMP180;9980;51.020;7.772;2023-11-19T12:27:50;96936.00;;;16.00
19666;BMP180;9980;51.020;7.772;2023-11-19T12:30:24;96921.00;;;16.00
19666;BMP180;9980;51.020;7.772;2023-11-19T12:32:53;96923.00;;;16.00
19666;BMP180;9980;51.020;7.772;2023-11-19T12:35:22;96916.00;;;16.10
19666;BMP180;9980;51.020;7.772;2023-11-19T12:37:52;96923.00;;;16.10
19666;BMP180;9980;51.020;7.772;2023-11-19T12:40:23;96903.00;;;16.10
19666;BMP180;9980;51.020;7.772;2023-11-19T12:42:55;96895.00;;;16.10
19666;BMP180;9980;51.020;7.772;2023-11-19T12:45:23;96896.00;;;16.20
19666;BMP180;9980;51.020;7.772;2023-11-19T12:48:08;96902.00;;;16.20
19666;BMP180;9980;51.020;7.772;2023-11-19T12:50:57;96893.00;;;16.20
19666;BMP180;9980;51.020;7.772;2023-11-19T12:53:26;96895.00;;;16.20
19666;BMP180;9980;51.020;7.772;2023-11-19T12:55:54;96886.00;;;16.20
19666;BMP180;9980;51.020;7.772;2023-11-19T12:58:34;96891.00;;;16.20
19666;BMP180;9980;51.020;7.772;2023-11-19T13:01:04;96874.00;;;16.20
19666;BMP180;9980;51.020;7.772;2023-11-19T13:03:39;96872.00;;;16.20
19666;BMP180;9980;51.020;7.772;2023-11-19T13:06:12;96880.00;;;16.10
19666;BMP180;9980;51.020;7.772;2023-11-19T13:08:42;96886.00;;;16.10
19666;BMP180;9980;51.020;7.772;2023-11-19T13:11:12;96894.00;;;16.10
19666;BMP180;9980;51.020;7.772;2023-11-19T13:14:03;96893.00;;;16.10
19666;BMP180;9980;51.020;7.772;2023-11-19T13:16:38;96881.00;;;16.10
19666;BMP180;9980;51.020;7.772;2023-11-19T13:19:06;96893.00;;;16.10
19666;BMP180;9980;51.020;7.772;2023-11-19T13:21:33;96879.00;;;16.00
19666;BMP180;9980;51.020;7.772;2023-11-19T13:24:01;96879.00;;;16.00
19666;BMP180;9980;51.020;7.772;2023-11-19T13:26:28;96888.00;;;16.00
19666;BMP180;9980;51.020;7.772;2023-11-19T13:28:55;96886.00;;;16.00
19666;BMP180;9980;51.020;7.772;2023-11-19T13:31:22;96882.00;;;16.00
19666;BMP180;9980;51.020;7.772;2023-11-19T13:33:49;96884.00;;;15.90
19666;BMP180;9980;51.020;7.772;2023-11-19T13:36:17;96871.00;;;15.90
19666;BMP180;9980;51.020;7.772;2023-11-19T13:38:44;96888.00;;;15.90
19666;BMP180;9980;51.020;7.772;2023-11-19T13:41:12;96871.00;;;15.90
19666;BMP180;9980;51.020;7.772;2023-11-19T13:43:40;96883.00;;;15.90
19666;BMP180;9980;51.020;7.772;2023-11-19T13:46:07;96890.00;;;15.90
19666;BMP180;9980;51.020;7.772;2023-11-19T13:48:37;96892.00;;;15.90
19666;BMP180;9980;51.020;7.772;2023-11-19T13:51:05;96890.00;;;15.80
19666;BMP180;9980;51.020;7.772;2023-11-19T13:53:32;96888.00;;;15.80
19666;BMP180;9980;51.020;7.772;2023-11-19T13:56:17;96891.00;;;15.70
19666;BMP180;9980;51.020;7.772;2023-11-19T13:58:45;96890.00;;;15.70
19666;BMP180;9980;51.020;7.772;2023-11-19T14:01:12;96883.00;;;15.60
19666;BMP180;9980;51.020;7.772;2023-11-19T14:03:40;96875.00;;;15.60
19666;BMP180;9980;51.020;7.772;2023-11-19T14:06:09;96866.00;;;15.60
19666;BMP180;9980;51.020;7.772;2023-11-19T14:08:36;96867.00;;;15.50
19666;BMP180;9980;51.020;7.772;2023-11-19T14:11:04;96872.00;;;15.50
19666;BMP180;9980;51.020;7.772;2023-11-19T14:13:31;96873.00;;;15.50
19666;BMP180;9980;51.020;7.772;2023-11-19T14:15:59;96871.00;;;15.50
19666;BMP180;9980;51.020;7.772;2023-11-19T14:18:27;96889.00;;;15.50
19666;BMP180;9980;51.020;7.772;2023-11-19T14:20:54;96883.00;;;15.40
19666;BMP180;9980;51.020;7.772;2023-11-19T14:23:21;96875.00;;;15.40
19666;BMP180;9980;51.020;7.772;2023-11-19T14:25:48;96873.00;;;15.40
19666;BMP180;9980;51.020;7.772;2023-11-19T14:28:16;96872.00;;;15.30
19666;BMP180;9980;51.020;7.772;2023-11-19T14:30:43;96868.00;;;15.30
19666;BMP180;9980;51.020;7.772;2023-11-19T14:33:12;96865.00;;;15.30
19666;BMP180;9980;51.020;7.772;2023-11-19T14:35:39;96866.00;;;15.30
19666;BMP180;9980;51.020;7.772;2023-11-19T14:38:06;96864.00;;;15.30
19666;BMP180;9980;51.020;7.772;2023-11-19T14:40:36;96866.00;;;15.30
19666;BMP180;9980;51.020;7.772;2023-11-19T14:43:06;96873.00;;;15.20
19666;BMP180;9980;51.020;7.772;2023-11-19T14:45:37;96862.00;;;15.20